createdAt,value
2023-01-31T00:00:09.278Z,14.40
2023-01-31T00:03:00.659Z,14.30
2023-01-31T00:05:41.848Z,15.50
2023-01-31T00:08:16.954Z,15.90
2023-01-31T00:10:47.975Z,14.90
2023-01-31T00:13:22.181Z,17.80
2023-01-31T00:15:53.421Z,16.20
2023-01-31T00:18:24.854Z,16.20
2023-01-31T00:21:23.552Z,14.00
2023-01-31T00:23:55.939Z,16.70
2023-01-31T00:26:48.780Z,14.10
2023-01-31T00:29:40.223Z,17.30
2023-01-31T00:32:12.402Z,12.50
2023-01-31T00:34:43.427Z,11.90
2023-01-31T00:37:28.350Z,15.90
2023-01-31T00:40:25.349Z,16.20
2023-01-31T00:42:56.168Z,14.70
2023-01-31T00:45:27.130Z,11.70
2023-01-31T00:47:58.158Z,14.90
2023-01-31T00:50:49.775Z,14.90
2023-01-31T00:53:24.082Z,15.00
2023-01-31T00:55:56.568Z,14.70
2023-01-31T00:58:35.848Z,15.80
2023-01-31T01:01:11.639Z,14.60
2023-01-31T01:04:03.702Z,14.80
2023-01-31T01:06:43.274Z,14.00
2023-01-31T01:09:19.192Z,16.70
2023-01-31T01:11:59.588Z,12.60
2023-01-31T01:14:30.357Z,13.30
2023-01-31T01:17:02.558Z,16.00
2023-01-31T01:19:54.964Z,12.80
2023-01-31T01:22:46.401Z,16.10
2023-01-31T01:25:30.382Z,14.10
2023-01-31T01:28:06.672Z,15.50
2023-01-31T01:30:46.419Z,13.70
2023-01-31T01:33:38.469Z,12.90
2023-01-31T01:36:13.691Z,13.60
2023-01-31T01:38:47.893Z,16.70
2023-01-31T01:41:23.640Z,11.10
2023-01-31T01:43:59.338Z,14.40
2023-01-31T01:46:36.156Z,14.10
2023-01-31T01:49:20.691Z,10.90
2023-01-31T01:51:53.347Z,14.80
2023-01-31T01:54:28.554Z,11.00
2023-01-31T01:57:04.505Z,12.90
2023-01-31T01:59:36.562Z,13.60
2023-01-31T02:02:28.561Z,11.90
2023-01-31T02:04:59.674Z,12.20
2023-01-31T02:07:31.338Z,12.50
2023-01-31T02:10:15.254Z,13.40
2023-01-31T02:13:06.887Z,11.10
2023-01-31T02:15:51.204Z,13.90
2023-01-31T02:18:23.387Z,14.50
2023-01-31T02:21:14.551Z,13.30
2023-01-31T02:24:12.044Z,14.20
2023-01-31T02:26:56.386Z,14.80
2023-01-31T02:29:36.132Z,11.10
2023-01-31T02:32:36.714Z,9.70
2023-01-31T02:35:20.600Z,12.10
2023-01-31T02:37:58.778Z,10.70
2023-01-31T02:40:40.760Z,14.40
2023-01-31T02:43:57.961Z,14.70
2023-01-31T02:46:36.960Z,11.40
2023-01-31T02:49:12.075Z,14.20
2023-01-31T02:52:18.233Z,14.60
2023-01-31T02:55:40.236Z,14.00
2023-01-31T02:58:21.866Z,14.30
2023-01-31T03:00:57.000Z,25.50
2023-01-31T03:03:33.091Z,13.80
2023-01-31T03:06:36.616Z,16.30
2023-01-31T03:09:26.359Z,18.70
2023-01-31T03:12:12.471Z,18.80
2023-01-31T03:14:47.104Z,18.40
2023-01-31T03:17:52.066Z,17.20
2023-01-31T03:20:45.998Z,17.20
2023-01-31T03:23:20.303Z,14.60
2023-01-31T03:26:15.893Z,23.40
2023-01-31T03:28:48.225Z,15.20
2023-01-31T03:31:25.852Z,13.70
2023-01-31T03:34:02.441Z,17.10
2023-01-31T03:36:47.351Z,23.60
2023-01-31T03:39:44.347Z,10.20
2023-01-31T03:42:23.117Z,21.30
2023-01-31T03:44:57.757Z,17.70
2023-01-31T03:47:33.604Z,15.10
2023-01-31T03:50:08.167Z,18.00
2023-01-31T03:52:45.259Z,15.30
2023-01-31T03:55:22.294Z,20.40
2023-01-31T03:57:55.774Z,18.00
2023-01-31T04:00:38.192Z,17.60
2023-01-31T04:03:12.947Z,16.10
2023-01-31T04:05:45.479Z,20.50
2023-01-31T04:08:19.456Z,16.70
2023-01-31T04:10:55.948Z,19.50
2023-01-31T04:13:46.955Z,15.00
2023-01-31T04:16:20.462Z,16.90
2023-01-31T04:18:52.465Z,15.00
2023-01-31T04:21:24.997Z,15.00
2023-01-31T04:24:16.131Z,13.50
2023-01-31T04:26:47.324Z,14.00
2023-01-31T04:29:34.602Z,14.80
2023-01-31T04:32:25.985Z,14.90
2023-01-31T04:34:56.992Z,13.80
2023-01-31T04:37:28.380Z,19.40
2023-01-31T04:39:59.410Z,10.50
2023-01-31T04:42:31.874Z,11.70
2023-01-31T04:45:02.940Z,12.00
2023-01-31T04:47:33.995Z,12.90
2023-01-31T04:50:05.025Z,10.10
2023-01-31T04:52:36.521Z,13.80
2023-01-31T04:55:08.260Z,7.90
2023-01-31T04:57:39.449Z,12.30
2023-01-31T05:00:11.802Z,13.40
2023-01-31T05:02:42.698Z,10.60
2023-01-31T05:05:14.427Z,10.10
2023-01-31T05:07:45.688Z,8.10
2023-01-31T05:10:16.683Z,8.50
2023-01-31T05:12:47.740Z,8.20
2023-01-31T05:15:19.270Z,11.10
2023-01-31T05:17:54.538Z,10.80
2023-01-31T05:20:25.950Z,12.30
2023-01-31T05:22:56.725Z,11.70
2023-01-31T05:25:27.899Z,12.90
2023-01-31T05:27:59.065Z,10.20
2023-01-31T05:30:31.343Z,9.60
2023-01-31T05:33:02.797Z,9.80
2023-01-31T05:35:34.284Z,10.20
2023-01-31T05:38:05.185Z,18.30
2023-01-31T05:40:36.204Z,16.30
2023-01-31T05:43:07.050Z,13.50
2023-01-31T05:45:38.010Z,11.10
2023-01-31T05:48:11.182Z,16.40
2023-01-31T05:50:42.020Z,14.00
2023-01-31T05:53:13.112Z,10.80
2023-01-31T05:55:47.173Z,10.80
2023-01-31T05:58:18.265Z,9.90
2023-01-31T06:00:51.845Z,9.70
2023-01-31T06:03:25.769Z,13.30
2023-01-31T06:05:56.973Z,12.80
2023-01-31T06:08:27.847Z,8.80
2023-01-31T06:11:05.070Z,9.80
2023-01-31T06:13:36.260Z,12.60
2023-01-31T06:16:10.215Z,8.70
2023-01-31T06:18:41.155Z,11.60
2023-01-31T06:21:12.465Z,12.90
2023-01-31T06:23:46.276Z,14.00
2023-01-31T06:26:17.283Z,8.50
2023-01-31T06:29:09.471Z,10.10
2023-01-31T06:31:49.169Z,8.20
2023-01-31T06:34:40.395Z,11.30
2023-01-31T06:37:14.317Z,12.60
2023-01-31T06:39:45.286Z,11.60
2023-01-31T06:42:18.871Z,8.70
2023-01-31T06:44:59.992Z,12.70
2023-01-31T06:47:30.988Z,11.40
2023-01-31T06:50:02.003Z,10.60
2023-01-31T06:52:36.544Z,12.70
2023-01-31T06:55:08.151Z,7.70
2023-01-31T06:57:39.180Z,10.40
2023-01-31T07:00:11.352Z,17.70
2023-01-31T07:02:42.384Z,15.20
2023-01-31T07:05:13.721Z,11.40
2023-01-31T07:07:44.859Z,14.50
2023-01-31T07:10:16.485Z,11.30
2023-01-31T07:12:53.406Z,12.10
2023-01-31T07:15:27.266Z,13.20
2023-01-31T07:18:03.088Z,17.80
2023-01-31T07:20:35.205Z,12.50
2023-01-31T07:23:06.030Z,15.20
2023-01-31T07:25:37.124Z,12.40
2023-01-31T07:28:13.194Z,15.30
2023-01-31T07:30:46.419Z,16.70
2023-01-31T07:33:18.607Z,17.00
2023-01-31T07:35:49.765Z,13.00
2023-01-31T07:38:26.234Z,13.80
2023-01-31T07:41:01.981Z,17.00
2023-01-31T07:43:33.527Z,18.90
2023-01-31T07:46:11.206Z,12.80
2023-01-31T07:48:43.290Z,17.30
2023-01-31T07:51:14.263Z,14.50
2023-01-31T07:53:48.263Z,15.80
2023-01-31T07:56:20.461Z,15.80
2023-01-31T07:58:52.192Z,15.20
2023-01-31T08:01:43.931Z,13.40
2023-01-31T08:04:21.740Z,16.80
2023-01-31T08:06:56.328Z,16.80
2023-01-31T08:12:10.475Z,22.90
2023-01-31T08:14:41.328Z,19.10
2023-01-31T08:17:12.768Z,15.50
2023-01-31T08:19:44.855Z,14.70
2023-01-31T08:22:16.136Z,21.20
2023-01-31T08:24:47.277Z,15.70
2023-01-31T08:27:18.604Z,16.50
2023-01-31T08:29:49.673Z,20.20
2023-01-31T08:32:42.415Z,18.10
2023-01-31T08:35:15.730Z,18.60
2023-01-31T08:37:46.882Z,20.60
2023-01-31T08:40:18.218Z,15.20
2023-01-31T08:42:56.404Z,13.20
2023-01-31T08:45:36.594Z,20.00
2023-01-31T08:48:07.639Z,15.40
2023-01-31T08:50:40.519Z,15.00
2023-01-31T08:55:41.109Z,14.90
2023-01-31T08:58:11.819Z,20.20
2023-01-31T09:00:43.091Z,19.00
2023-01-31T09:03:17.110Z,22.00
2023-01-31T09:05:48.866Z,22.20
2023-01-31T09:08:19.434Z,14.80
2023-01-31T09:10:55.034Z,23.40
2023-01-31T09:13:25.845Z,19.80
2023-01-31T09:16:01.123Z,22.90
2023-01-31T09:18:32.200Z,26.50
2023-01-31T09:21:06.574Z,19.00
2023-01-31T09:23:42.530Z,19.70
2023-01-31T09:28:45.751Z,18.80
2023-01-31T09:31:18.440Z,22.30
2023-01-31T09:33:49.494Z,26.90
2023-01-31T09:36:22.501Z,18.60
2023-01-31T09:38:57.150Z,20.00
2023-01-31T09:41:29.943Z,19.00
2023-01-31T09:44:02.962Z,22.70
2023-01-31T09:46:57.498Z,23.90
2023-01-31T09:49:30.828Z,17.40
2023-01-31T09:54:41.202Z,18.30
2023-01-31T09:57:19.609Z,19.50
2023-01-31T09:59:54.129Z,17.70
2023-01-31T10:02:34.288Z,17.80
2023-01-31T10:05:18.670Z,18.50
2023-01-31T10:07:52.475Z,19.60
2023-01-31T10:10:29.049Z,19.60
2023-01-31T10:13:01.628Z,19.50
2023-01-31T10:15:34.094Z,20.60
2023-01-31T10:18:07.531Z,14.60
2023-01-31T10:20:40.073Z,17.70
2023-01-31T10:23:17.584Z,21.90
2023-01-31T10:25:52.458Z,20.00
2023-01-31T10:28:25.996Z,18.70
2023-01-31T10:31:00.083Z,19.60
2023-01-31T10:33:35.020Z,16.40
2023-01-31T10:36:10.931Z,18.40
2023-01-31T10:38:47.395Z,20.50
2023-01-31T10:41:25.355Z,19.40
2023-01-31T10:44:01.088Z,17.20
2023-01-31T10:46:32.869Z,20.50
2023-01-31T10:49:12.669Z,17.20
2023-01-31T10:51:51.229Z,19.20
2023-01-31T10:54:29.263Z,21.10
2023-01-31T10:57:03.043Z,19.70
2023-01-31T10:59:35.283Z,16.10
2023-01-31T11:02:06.806Z,18.70
2023-01-31T11:04:40.304Z,14.50
2023-01-31T11:07:19.263Z,20.60
2023-01-31T11:09:51.733Z,25.10
2023-01-31T11:12:41.988Z,19.30
2023-01-31T11:15:17.988Z,17.30
2023-01-31T11:17:49.695Z,17.50
2023-01-31T11:20:28.868Z,16.20
2023-01-31T11:23:03.726Z,19.10
2023-01-31T11:25:37.112Z,17.40
2023-01-31T11:28:21.996Z,18.60
2023-01-31T11:30:56.023Z,19.80
2023-01-31T11:33:45.345Z,18.30
2023-01-31T11:36:17.234Z,14.60
2023-01-31T11:38:48.431Z,18.90
2023-01-31T11:41:35.866Z,18.50
2023-01-31T11:44:23.432Z,13.90
2023-01-31T11:46:55.692Z,16.50
2023-01-31T11:49:34.786Z,21.40
2023-01-31T11:52:13.913Z,15.90
2023-01-31T11:55:08.024Z,14.00
2023-01-31T11:57:39.793Z,15.50
2023-01-31T12:00:22.153Z,16.30
2023-01-31T12:02:55.188Z,12.60
2023-01-31T12:05:31.868Z,13.20
2023-01-31T12:08:02.799Z,11.70
2023-01-31T12:10:35.259Z,19.80
2023-01-31T12:13:18.822Z,10.80
2023-01-31T12:15:52.838Z,13.20
2023-01-31T12:18:28.592Z,11.80
2023-01-31T12:21:03.706Z,10.50
2023-01-31T12:23:39.956Z,16.00
2023-01-31T12:26:15.418Z,13.80
2023-01-31T12:28:59.658Z,13.50
2023-01-31T12:31:46.151Z,12.60
2023-01-31T12:34:28.092Z,12.80
2023-01-31T12:37:12.707Z,14.90
2023-01-31T12:40:03.248Z,11.00
2023-01-31T12:42:52.201Z,14.70
2023-01-31T12:45:35.431Z,15.40
2023-01-31T12:48:29.278Z,10.20
2023-01-31T12:51:10.051Z,17.60
2023-01-31T12:53:57.514Z,11.80
2023-01-31T12:56:41.875Z,13.50
2023-01-31T12:59:29.418Z,13.70
2023-01-31T13:02:04.287Z,9.70
2023-01-31T13:04:39.876Z,10.80
2023-01-31T13:07:25.053Z,11.30
2023-01-31T13:09:59.384Z,16.20
2023-01-31T13:12:32.916Z,13.50
2023-01-31T13:17:53.168Z,16.00
2023-01-31T13:20:30.929Z,10.10
2023-01-31T13:23:05.370Z,14.70
2023-01-31T13:25:51.644Z,13.60
2023-01-31T13:28:24.574Z,15.80
2023-01-31T13:31:07.089Z,13.50
2023-01-31T13:36:29.465Z,11.00
2023-01-31T13:39:14.014Z,13.60
2023-01-31T13:41:46.029Z,15.50
2023-01-31T13:44:52.217Z,20.90
2023-01-31T13:49:45.921Z,14.40
2023-01-31T13:52:19.167Z,13.20
2023-01-31T13:54:59.897Z,18.70
2023-01-31T13:57:33.564Z,15.90
2023-01-31T14:00:10.437Z,18.10
2023-01-31T14:03:09.975Z,16.50
2023-01-31T14:06:02.998Z,18.00
2023-01-31T14:08:41.357Z,17.60
2023-01-31T14:11:36.378Z,18.70
2023-01-31T14:14:18.526Z,21.70
2023-01-31T14:17:00.441Z,17.90
2023-01-31T14:19:55.658Z,17.70
2023-01-31T14:22:28.121Z,23.40
2023-01-31T14:25:02.946Z,17.40
2023-01-31T14:27:38.303Z,25.20
2023-01-31T14:30:30.092Z,22.40
2023-01-31T14:33:25.641Z,17.70
2023-01-31T14:36:13.768Z,19.70
2023-01-31T14:39:21.003Z,33.40
2023-01-31T14:42:05.234Z,20.10
2023-01-31T14:44:43.479Z,20.20
2023-01-31T14:47:53.751Z,19.10
2023-01-31T15:29:22.412Z,20.60
2023-01-31T15:31:55.216Z,16.00
2023-01-31T15:34:29.306Z,17.40
2023-01-31T15:37:05.489Z,21.40
2023-01-31T15:39:49.376Z,17.80
2023-01-31T15:42:25.576Z,17.40
2023-01-31T15:45:09.756Z,20.30
2023-01-31T15:47:40.778Z,21.10
2023-01-31T15:50:21.822Z,25.20
2023-01-31T15:52:52.618Z,25.80
2023-01-31T15:55:24.248Z,22.20
2023-01-31T15:57:58.043Z,22.30
2023-01-31T16:00:31.271Z,22.60
2023-01-31T16:03:08.470Z,24.00
2023-01-31T16:05:40.527Z,24.60
2023-01-31T16:08:29.565Z,21.60
2023-01-31T16:11:01.904Z,23.30
2023-01-31T16:13:33.273Z,23.30
2023-01-31T16:16:10.807Z,22.00
2023-01-31T16:18:43.087Z,24.50
2023-01-31T16:21:24.987Z,24.30
2023-01-31T16:24:03.477Z,23.00
2023-01-31T16:26:36.301Z,24.40
2023-01-31T16:29:10.473Z,23.40
2023-01-31T16:31:48.624Z,23.00
2023-01-31T16:34:25.444Z,19.20
2023-01-31T16:36:58.213Z,24.00
2023-01-31T16:39:40.364Z,23.10
2023-01-31T16:42:27.749Z,20.10
2023-01-31T16:44:58.987Z,21.90
2023-01-31T16:47:35.368Z,19.40
2023-01-31T16:50:36.819Z,21.00
2023-01-31T16:53:18.791Z,16.30
2023-01-31T16:56:10.221Z,14.80
2023-01-31T16:58:48.400Z,18.20
2023-01-31T17:01:27.920Z,16.00
2023-01-31T17:04:15.649Z,17.10
2023-01-31T17:07:03.633Z,15.90
2023-01-31T17:09:59.764Z,22.10
2023-01-31T17:12:35.009Z,19.10
2023-01-31T17:15:15.314Z,15.60
2023-01-31T17:17:46.647Z,16.30
2023-01-31T17:20:23.871Z,18.90
2023-01-31T17:23:03.117Z,20.70
2023-01-31T17:25:39.133Z,17.40
2023-01-31T17:28:11.074Z,18.60
2023-01-31T17:30:57.546Z,21.80
2023-01-31T17:33:28.927Z,17.30
2023-01-31T17:36:00.500Z,17.80
2023-01-31T17:38:41.450Z,18.70
2023-01-31T17:41:15.188Z,24.30
2023-01-31T17:43:46.622Z,17.40
2023-01-31T17:46:18.484Z,21.70
2023-01-31T17:48:50.066Z,19.40
2023-01-31T17:51:20.922Z,20.20
2023-01-31T17:54:12.459Z,20.20
2023-01-31T17:56:47.518Z,22.70
2023-01-31T17:59:26.841Z,22.20
2023-01-31T18:01:59.673Z,26.00
2023-01-31T18:04:31.068Z,21.50
2023-01-31T18:07:01.965Z,24.80
2023-01-31T18:09:33.554Z,24.40
2023-01-31T18:12:07.664Z,22.50
2023-01-31T18:14:43.947Z,22.90
2023-01-31T18:17:26.565Z,19.90
2023-01-31T18:19:57.525Z,20.90
2023-01-31T18:22:28.598Z,18.30
2023-01-31T18:25:00.545Z,22.10
2023-01-31T18:27:31.366Z,20.80
2023-01-31T18:30:05.759Z,21.40
2023-01-31T18:32:36.893Z,19.30
2023-01-31T18:35:13.423Z,18.30
2023-01-31T18:37:49.745Z,18.90
2023-01-31T18:40:22.730Z,17.90
2023-01-31T18:42:54.279Z,20.20
2023-01-31T18:45:28.170Z,19.70
2023-01-31T18:47:59.366Z,20.80
2023-01-31T18:50:33.438Z,17.40
2023-01-31T18:53:06.683Z,17.60
2023-01-31T18:55:37.692Z,17.00
2023-01-31T18:58:12.290Z,16.30
2023-01-31T19:00:46.496Z,14.50
2023-01-31T19:03:22.398Z,15.70
2023-01-31T19:08:23.323Z,14.50
2023-01-31T19:10:54.167Z,14.50
2023-01-31T19:13:28.264Z,17.70
2023-01-31T19:16:01.959Z,19.00
2023-01-31T19:18:33.541Z,16.40
2023-01-31T19:21:04.963Z,18.00
2023-01-31T19:23:37.963Z,17.30
2023-01-31T19:26:17.569Z,14.50
2023-01-31T19:28:49.408Z,16.20
2023-01-31T19:31:21.846Z,17.20
2023-01-31T19:33:54.046Z,15.40
2023-01-31T19:36:25.751Z,18.10
2023-01-31T19:39:00.806Z,18.60
2023-01-31T19:41:39.730Z,17.50
2023-01-31T19:44:13.870Z,13.90
2023-01-31T19:46:46.494Z,14.30
2023-01-31T19:49:36.596Z,23.40
2023-01-31T19:52:09.936Z,18.40
2023-01-31T19:54:41.938Z,14.90
2023-01-31T19:57:25.528Z,17.20
2023-01-31T19:59:58.779Z,16.40
2023-01-31T20:02:29.821Z,20.10
2023-01-31T20:05:01.432Z,15.80
2023-01-31T20:07:45.646Z,15.30
2023-01-31T20:10:17.755Z,18.60
2023-01-31T20:12:51.058Z,15.70
2023-01-31T20:15:23.046Z,17.10
2023-01-31T20:17:54.616Z,16.50
2023-01-31T20:20:28.174Z,14.80
2023-01-31T20:22:58.962Z,18.20
2023-01-31T20:25:34.406Z,16.90
2023-01-31T20:28:07.451Z,19.10
2023-01-31T20:30:39.180Z,17.50
2023-01-31T20:33:10.015Z,12.90
2023-01-31T20:35:41.821Z,12.60
2023-01-31T20:38:15.402Z,12.60
2023-01-31T20:40:51.966Z,13.90
2023-01-31T20:43:31.852Z,14.40
2023-01-31T20:46:09.689Z,11.10
2023-01-31T20:48:43.782Z,12.00
2023-01-31T20:51:15.665Z,12.10
2023-01-31T20:53:47.756Z,15.20
2023-01-31T20:56:19.203Z,12.60
2023-01-31T20:58:50.113Z,11.70
2023-01-31T21:01:21.435Z,11.80
2023-01-31T21:03:53.081Z,11.00
2023-01-31T21:06:24.488Z,12.60
2023-01-31T21:08:55.433Z,10.50
2023-01-31T21:11:26.881Z,9.40
2023-01-31T21:13:57.583Z,13.20
2023-01-31T21:16:28.948Z,12.10
2023-01-31T21:18:59.914Z,9.80
2023-01-31T21:21:31.253Z,11.00
2023-01-31T21:24:05.390Z,11.30
2023-01-31T21:26:57.319Z,10.00
2023-01-31T21:29:28.045Z,9.30
2023-01-31T21:32:00.848Z,10.90
2023-01-31T21:34:31.580Z,14.70
2023-01-31T21:37:04.003Z,10.70
2023-01-31T21:39:34.598Z,10.70
2023-01-31T21:42:20.113Z,10.30
2023-01-31T21:44:53.323Z,11.20
2023-01-31T21:47:24.850Z,14.00
2023-01-31T21:49:55.857Z,10.40
2023-01-31T21:52:27.580Z,11.60
2023-01-31T21:54:58.305Z,11.80
2023-01-31T21:57:29.834Z,9.80
2023-01-31T22:00:00.470Z,11.10
2023-01-31T22:02:31.935Z,7.90
2023-01-31T22:05:02.762Z,9.10
2023-01-31T22:07:34.470Z,11.40
2023-01-31T22:10:05.575Z,12.20
2023-01-31T22:12:38.147Z,9.10
2023-01-31T22:15:11.220Z,8.30
2023-01-31T22:17:42.856Z,11.30
2023-01-31T22:20:15.939Z,8.90
2023-01-31T22:22:48.877Z,11.20
2023-01-31T22:25:19.517Z,8.80
2023-01-31T22:27:52.450Z,8.30
2023-01-31T22:30:23.325Z,9.20
2023-01-31T22:32:56.719Z,8.90
2023-01-31T22:35:27.825Z,11.30
2023-01-31T22:37:59.173Z,10.30
2023-01-31T22:40:29.811Z,7.60
2023-01-31T22:43:01.166Z,10.20
2023-01-31T22:45:31.989Z,8.20
2023-01-31T22:48:03.071Z,8.40
2023-01-31T22:50:33.984Z,13.30
2023-01-31T22:53:05.425Z,9.10
2023-01-31T22:55:39.943Z,7.30
2023-01-31T22:58:16.772Z,7.60
2023-01-31T23:00:47.969Z,8.80
2023-01-31T23:03:19.463Z,9.80
2023-01-31T23:05:50.110Z,10.40
2023-01-31T23:08:21.898Z,10.10
2023-01-31T23:10:52.579Z,8.20
2023-01-31T23:13:24.455Z,9.80
2023-01-31T23:15:55.479Z,7.70
2023-01-31T23:18:26.775Z,8.40
2023-01-31T23:21:07.681Z,10.20
2023-01-31T23:23:39.617Z,9.60
2023-01-31T23:26:10.761Z,13.70
2023-01-31T23:28:42.308Z,9.70
2023-01-31T23:31:13.236Z,7.90
2023-01-31T23:33:45.248Z,10.60
2023-01-31T23:36:15.945Z,8.90
2023-01-31T23:38:49.942Z,13.60
2023-01-31T23:41:20.576Z,9.00
2023-01-31T23:43:57.668Z,9.50
2023-01-31T23:46:28.366Z,9.00
2023-01-31T23:48:59.644Z,6.90
2023-01-31T23:51:31.462Z,15.70
2023-01-31T23:54:02.644Z,8.90
2023-01-31T23:56:33.627Z,7.80
2023-01-31T23:59:05.278Z,8.30
